createdAt,value
2023-12-14T00:00:42.425Z,21.66
2023-12-14T00:03:10.812Z,26.60
2023-12-14T00:05:39.158Z,24.70
2023-12-14T00:08:07.692Z,23.75
2023-12-14T00:10:36.107Z,22.42
2023-12-14T00:13:05.850Z,24.51
2023-12-14T00:15:32.883Z,24.32
2023-12-14T00:18:01.291Z,21.85
2023-12-14T00:20:29.742Z,23.94
2023-12-14T00:22:58.152Z,26.60
2023-12-14T00:25:26.572Z,25.27
2023-12-14T00:27:55.023Z,28.31
2023-12-14T00:30:23.457Z,24.51
2023-12-14T00:32:51.925Z,21.09
2023-12-14T00:35:20.271Z,25.65
2023-12-14T00:37:48.749Z,24.89
2023-12-14T00:40:17.018Z,30.78
2023-12-14T00:42:45.476Z,27.74
2023-12-14T00:45:14.077Z,26.98
2023-12-14T00:47:42.301Z,25.84
2023-12-14T00:50:10.950Z,30.21
2023-12-14T00:52:39.203Z,29.83
2023-12-14T00:55:07.991Z,33.25
2023-12-14T00:57:36.082Z,33.25
2023-12-14T01:00:06.450Z,27.93
2023-12-14T01:02:36.420Z,36.67
2023-12-14T01:05:07.097Z,36.29
2023-12-14T01:07:37.177Z,32.11
2023-12-14T01:10:07.890Z,30.97
2023-12-14T01:12:38.429Z,35.15
2023-12-14T01:15:09.179Z,37.24
2023-12-14T01:17:39.247Z,33.63
2023-12-14T01:20:12.381Z,33.63
2023-12-14T01:22:42.346Z,36.67
2023-12-14T01:25:12.459Z,36.86
2023-12-14T01:27:42.299Z,31.73
2023-12-14T01:30:12.625Z,40.09
2023-12-14T01:32:42.498Z,31.73
2023-12-14T01:35:10.932Z,35.91
2023-12-14T01:37:39.432Z,36.10
2023-12-14T01:40:11.660Z,42.56
2023-12-14T01:42:39.212Z,36.10
2023-12-14T01:45:08.221Z,30.78
2023-12-14T01:47:35.934Z,30.40
2023-12-14T01:50:05.041Z,31.35
2023-12-14T01:52:33.028Z,37.62
2023-12-14T01:55:03.744Z,34.01
2023-12-14T01:57:33.619Z,34.58
2023-12-14T02:00:03.603Z,30.59
2023-12-14T02:02:36.870Z,34.58
2023-12-14T02:05:07.373Z,25.84
2023-12-14T02:07:37.207Z,30.78
2023-12-14T02:10:07.780Z,23.56
2023-12-14T02:12:37.645Z,28.69
2023-12-14T02:15:08.408Z,26.41
2023-12-14T02:17:38.254Z,21.66
2023-12-14T02:20:11.857Z,26.22
2023-12-14T02:22:51.672Z,24.89
2023-12-14T02:25:23.166Z,23.94
2023-12-14T02:27:53.069Z,26.60
2023-12-14T02:30:22.981Z,27.93
2023-12-14T02:32:52.896Z,24.70
2023-12-14T02:35:23.812Z,24.70
2023-12-14T02:37:53.605Z,27.17
2023-12-14T02:40:23.466Z,25.08
2023-12-14T02:42:52.608Z,26.03
2023-12-14T02:45:20.252Z,24.89
2023-12-14T02:47:51.198Z,29.64
2023-12-14T02:50:20.089Z,24.32
2023-12-14T02:52:48.514Z,20.90
2023-12-14T02:55:16.926Z,24.13
2023-12-14T02:57:46.029Z,22.61
2023-12-14T03:00:14.730Z,22.04
2023-12-14T03:02:42.229Z,25.84
2023-12-14T03:05:11.083Z,22.23
2023-12-14T03:07:39.128Z,21.47
2023-12-14T03:10:08.609Z,21.66
2023-12-14T03:12:36.144Z,21.85
2023-12-14T03:15:04.873Z,22.99
2023-12-14T03:17:32.609Z,22.61
2023-12-14T03:20:01.194Z,23.56
2023-12-14T03:22:29.491Z,20.33
2023-12-14T03:24:57.834Z,19.95
2023-12-14T03:27:26.435Z,21.28
2023-12-14T03:29:54.766Z,21.28
2023-12-14T03:32:23.240Z,19.38
2023-12-14T03:34:51.594Z,22.61
2023-12-14T03:37:19.973Z,22.23
2023-12-14T03:39:48.453Z,24.13
2023-12-14T03:42:16.801Z,23.94
2023-12-14T03:44:45.118Z,24.89
2023-12-14T03:47:13.730Z,25.08
2023-12-14T03:49:42.083Z,27.74
2023-12-14T03:52:10.843Z,23.37
2023-12-14T03:54:38.897Z,22.04
2023-12-14T03:57:07.319Z,25.65
2023-12-14T03:59:40.187Z,24.13
2023-12-14T04:02:10.141Z,26.79
2023-12-14T04:04:41.396Z,26.98
2023-12-14T04:07:11.117Z,24.13
2023-12-14T04:09:41.034Z,26.03
2023-12-14T04:12:10.883Z,24.70
2023-12-14T04:14:40.661Z,27.74
2023-12-14T04:17:10.808Z,29.83
2023-12-14T04:19:40.768Z,26.22
2023-12-14T04:22:10.764Z,25.65
2023-12-14T04:24:39.193Z,28.88
2023-12-14T04:27:07.477Z,28.12
2023-12-14T04:29:36.029Z,26.79
2023-12-14T04:32:05.024Z,28.69
2023-12-14T04:34:32.967Z,26.22
2023-12-14T04:37:01.213Z,24.89
2023-12-14T04:39:29.616Z,23.94
2023-12-14T04:41:58.078Z,26.60
2023-12-14T04:44:26.508Z,27.17
2023-12-14T04:46:55.091Z,26.41
2023-12-14T04:49:23.373Z,22.80
2023-12-14T04:51:52.003Z,26.03
2023-12-14T04:54:20.220Z,26.41
2023-12-14T04:56:49.024Z,23.75
2023-12-14T04:59:17.270Z,24.70
2023-12-14T05:01:45.619Z,24.13
2023-12-14T05:04:14.021Z,31.92
2023-12-14T05:06:42.497Z,19.19
2023-12-14T05:09:12.717Z,24.32
2023-12-14T05:11:42.214Z,22.61
2023-12-14T05:14:10.712Z,20.90
2023-12-14T05:16:39.118Z,25.08
2023-12-14T05:19:07.616Z,18.43
2023-12-14T05:21:35.934Z,22.42
2023-12-14T05:24:04.530Z,23.75
2023-12-14T05:26:32.951Z,20.33
2023-12-14T05:29:01.470Z,21.28
2023-12-14T05:31:29.703Z,22.23
2023-12-14T05:33:58.237Z,23.37
2023-12-14T05:36:26.518Z,20.33
2023-12-14T05:38:55.056Z,19.00
2023-12-14T05:41:23.447Z,18.24
2023-12-14T05:43:51.896Z,18.43
2023-12-14T05:46:24.290Z,23.94
2023-12-14T05:48:54.121Z,20.14
2023-12-14T05:51:32.061Z,22.23
2023-12-14T05:54:02.240Z,23.75
2023-12-14T05:56:32.072Z,19.76
2023-12-14T05:59:02.352Z,18.24
2023-12-14T06:01:32.396Z,25.08
2023-12-14T06:04:03.464Z,25.27
2023-12-14T06:06:33.320Z,20.14
2023-12-14T06:09:03.629Z,20.90
2023-12-14T06:11:33.511Z,19.00
2023-12-14T06:14:03.283Z,19.95
2023-12-14T06:16:33.346Z,16.72
2023-12-14T06:19:01.607Z,20.71
2023-12-14T06:21:29.945Z,18.43
2023-12-14T06:24:00.220Z,19.57
2023-12-14T06:26:29.824Z,16.72
2023-12-14T06:28:58.224Z,22.42
2023-12-14T06:31:26.583Z,18.43
2023-12-14T06:33:57.427Z,16.91
2023-12-14T06:36:31.097Z,15.77
2023-12-14T06:39:02.276Z,20.33
2023-12-14T06:41:32.222Z,20.52
2023-12-14T06:44:01.997Z,22.80
2023-12-14T06:46:31.904Z,20.14
2023-12-14T06:49:01.784Z,19.38
2023-12-14T06:51:31.632Z,17.86
2023-12-14T06:54:01.795Z,17.29
2023-12-14T06:56:31.586Z,18.62
2023-12-14T06:59:01.400Z,20.14
2023-12-14T07:01:31.452Z,19.19
2023-12-14T07:03:59.636Z,18.62
2023-12-14T07:06:28.042Z,17.10
2023-12-14T07:08:56.677Z,15.58
2023-12-14T07:11:24.899Z,18.43
2023-12-14T07:13:53.249Z,18.43
2023-12-14T07:16:21.697Z,15.96
2023-12-14T07:18:50.261Z,19.00
2023-12-14T07:21:18.498Z,16.91
2023-12-14T07:23:46.959Z,18.05
2023-12-14T07:26:15.488Z,18.43
2023-12-14T07:28:43.751Z,20.33
2023-12-14T07:31:12.311Z,15.58
2023-12-14T07:33:40.700Z,17.67
2023-12-14T07:36:09.223Z,15.58
2023-12-14T07:38:37.454Z,18.43
2023-12-14T07:42:43.874Z,16.34
2023-12-14T07:45:13.850Z,20.52
2023-12-14T07:47:43.960Z,19.95
2023-12-14T07:50:14.135Z,22.99
2023-12-14T07:52:44.253Z,19.57
2023-12-14T07:55:18.417Z,25.46
2023-12-14T07:57:48.234Z,21.47
2023-12-14T08:00:19.363Z,22.23
2023-12-14T08:02:49.242Z,21.28
2023-12-14T08:05:19.168Z,19.00
2023-12-14T08:07:48.672Z,23.56
2023-12-14T08:10:16.049Z,22.80
2023-12-14T08:12:44.305Z,22.61
2023-12-14T08:15:13.475Z,23.75
2023-12-14T08:17:42.466Z,24.89
2023-12-14T08:20:12.999Z,27.36
2023-12-14T08:22:45.782Z,26.41
2023-12-14T08:25:16.561Z,24.13
2023-12-14T08:27:46.434Z,26.22
2023-12-14T08:30:16.710Z,24.13
2023-12-14T08:32:46.572Z,26.22
2023-12-14T08:35:16.674Z,25.65
2023-12-14T08:37:46.566Z,24.13
2023-12-14T08:40:16.379Z,22.23
2023-12-14T08:42:48.711Z,22.80
2023-12-14T08:45:18.560Z,27.17
2023-12-14T08:47:48.376Z,25.46
2023-12-14T08:50:19.189Z,22.23
2023-12-14T08:52:47.129Z,22.04
2023-12-14T08:55:15.540Z,26.03
2023-12-14T08:57:43.534Z,26.60
2023-12-14T09:00:17.108Z,25.27
2023-12-14T09:02:47.361Z,26.41
2023-12-14T09:05:17.778Z,27.17
2023-12-14T09:07:48.841Z,25.27
2023-12-14T09:10:18.728Z,25.27
2023-12-14T09:12:48.648Z,26.98
2023-12-14T09:15:18.724Z,28.88
2023-12-14T09:17:48.621Z,30.02
2023-12-14T09:20:18.662Z,29.45
2023-12-14T09:22:48.638Z,29.26
2023-12-14T09:25:19.205Z,29.26
2023-12-14T09:27:49.203Z,28.12
2023-12-14T09:30:19.119Z,32.68
2023-12-14T09:32:49.750Z,27.74
2023-12-14T09:35:19.968Z,29.07
2023-12-14T09:37:50.918Z,33.25
2023-12-14T09:43:10.001Z,27.93
2023-12-14T09:45:43.142Z,29.83
2023-12-14T09:48:16.938Z,31.92
2023-12-14T09:50:46.071Z,25.27
2023-12-14T09:53:16.211Z,31.35
2023-12-14T09:55:46.203Z,28.50
2023-12-14T09:58:16.173Z,31.92
2023-12-14T10:00:46.310Z,31.54
2023-12-14T10:03:29.276Z,28.50
2023-12-14T10:06:03.454Z,27.74
2023-12-14T10:08:33.722Z,32.11
2023-12-14T10:11:16.607Z,30.02
2023-12-14T10:13:45.519Z,30.40
2023-12-14T10:16:29.973Z,29.26
2023-12-14T10:18:59.587Z,30.40
2023-12-14T10:21:29.719Z,30.40
2023-12-14T10:23:59.708Z,30.78
2023-12-14T10:26:28.995Z,31.54
2023-12-14T10:28:58.886Z,29.45
2023-12-14T10:31:29.828Z,29.64
2023-12-14T10:33:59.426Z,28.50
2023-12-14T10:36:29.832Z,28.69
2023-12-14T10:39:02.353Z,29.07
2023-12-14T10:41:33.382Z,29.07
2023-12-14T10:44:19.071Z,29.83
2023-12-14T10:46:57.662Z,26.60
2023-12-14T10:49:30.100Z,26.79
2023-12-14T10:52:01.550Z,28.31
2023-12-14T10:54:37.501Z,27.36
2023-12-14T10:57:09.601Z,29.45
2023-12-14T10:59:39.579Z,23.56
2023-12-14T11:02:11.344Z,25.08
2023-12-14T11:05:10.895Z,23.94
2023-12-14T11:07:54.837Z,28.31
2023-12-14T11:10:28.665Z,23.18
2023-12-14T11:13:12.296Z,22.42
2023-12-14T11:15:41.379Z,24.51
2023-12-14T11:18:11.652Z,23.56
2023-12-14T11:21:02.857Z,25.84
2023-12-14T11:23:40.362Z,28.50
2023-12-14T11:26:11.697Z,25.27
2023-12-14T11:28:46.658Z,27.74
2023-12-14T11:31:17.708Z,28.12
2023-12-14T11:33:49.176Z,30.21
2023-12-14T11:36:19.620Z,25.08
2023-12-14T11:38:52.136Z,30.97
2023-12-14T11:41:23.411Z,27.36
2023-12-14T11:43:53.467Z,29.07
2023-12-14T11:46:23.676Z,25.84
2023-12-14T11:48:53.778Z,29.64
2023-12-14T11:51:24.401Z,28.31
2023-12-14T11:53:54.316Z,28.31
2023-12-14T11:56:25.994Z,33.82
2023-12-14T11:58:56.504Z,29.83
2023-12-14T12:01:28.968Z,26.98
2023-12-14T12:04:11.901Z,28.88
2023-12-14T12:06:42.251Z,27.74
2023-12-14T12:09:12.037Z,31.35
2023-12-14T12:11:42.261Z,30.02
2023-12-14T12:14:12.278Z,31.73
2023-12-14T12:16:42.331Z,31.35
2023-12-14T12:19:12.281Z,34.77
2023-12-14T12:21:42.119Z,33.44
2023-12-14T12:24:22.203Z,32.87
2023-12-14T12:26:57.152Z,30.21
2023-12-14T12:29:27.269Z,32.68
2023-12-14T12:31:57.801Z,30.78
2023-12-14T12:34:27.723Z,30.59
2023-12-14T12:36:58.983Z,31.73
2023-12-14T12:39:29.635Z,26.22
2023-12-14T12:41:59.644Z,33.82
2023-12-14T12:44:29.476Z,29.45
2023-12-14T12:47:08.400Z,31.73
2023-12-14T12:49:42.044Z,28.31
2023-12-14T12:52:12.223Z,28.31
2023-12-14T12:54:42.201Z,30.21
2023-12-14T12:57:12.104Z,30.21
2023-12-14T12:59:42.015Z,31.35
2023-12-14T13:02:11.890Z,29.83
2023-12-14T13:04:42.125Z,25.08
2023-12-14T13:07:13.174Z,29.07
2023-12-14T13:09:43.232Z,28.69
2023-12-14T13:12:13.132Z,34.39
2023-12-14T13:14:42.980Z,31.35
2023-12-14T13:17:12.903Z,38.00
2023-12-14T13:19:41.388Z,29.45
2023-12-14T13:22:12.150Z,34.01
2023-12-14T13:24:41.190Z,33.82
2023-12-14T13:27:09.509Z,29.26
2023-12-14T13:29:38.014Z,31.54
2023-12-14T13:32:06.630Z,32.11
2023-12-14T13:34:34.734Z,28.31
2023-12-14T13:37:05.803Z,31.54
2023-12-14T13:39:38.793Z,34.77
2023-12-14T13:42:08.716Z,31.54
2023-12-14T13:44:38.628Z,30.21
2023-12-14T13:47:08.743Z,30.78
2023-12-14T13:49:38.904Z,29.83
2023-12-14T13:52:08.648Z,30.40
2023-12-14T13:54:38.561Z,30.59
2023-12-14T13:57:08.419Z,30.21
2023-12-14T13:59:38.376Z,36.67
2023-12-14T14:02:08.398Z,33.44
2023-12-14T14:04:38.326Z,31.73
2023-12-14T14:07:08.228Z,34.20
2023-12-14T14:09:38.140Z,31.54
2023-12-14T14:12:08.783Z,34.20
2023-12-14T14:14:38.684Z,34.01
2023-12-14T14:17:08.884Z,34.96
2023-12-14T14:19:38.933Z,29.07
2023-12-14T14:22:09.659Z,33.44
2023-12-14T14:24:39.579Z,34.39
2023-12-14T14:27:09.519Z,34.96
2023-12-14T14:29:39.389Z,32.68
2023-12-14T14:32:09.379Z,30.97
2023-12-14T14:34:39.520Z,32.11
2023-12-14T14:37:09.976Z,32.49
2023-12-14T14:39:44.108Z,30.78
2023-12-14T14:42:14.034Z,31.35
2023-12-14T14:44:44.041Z,31.16
2023-12-14T14:47:15.018Z,29.07
2023-12-14T14:49:45.463Z,30.78
2023-12-14T14:52:16.510Z,32.68
2023-12-14T14:54:43.877Z,34.20
2023-12-14T14:57:12.297Z,32.30
2023-12-14T14:59:40.697Z,31.73
2023-12-14T15:02:09.172Z,30.21
2023-12-14T15:04:37.587Z,33.06
2023-12-14T15:07:06.013Z,32.68
2023-12-14T15:09:34.568Z,29.45
2023-12-14T15:12:03.501Z,29.07
2023-12-14T15:14:31.224Z,31.73
2023-12-14T15:16:59.758Z,30.59
2023-12-14T15:19:27.952Z,28.31
2023-12-14T15:21:56.616Z,32.68
2023-12-14T15:24:23.841Z,35.91
2023-12-14T15:26:52.656Z,30.97
2023-12-14T15:29:22.394Z,28.69
2023-12-14T15:31:53.889Z,28.88
2023-12-14T15:34:23.844Z,29.83
2023-12-14T15:36:53.642Z,36.67
2023-12-14T15:39:23.773Z,28.31
2023-12-14T15:41:53.864Z,29.64
2023-12-14T15:44:24.131Z,31.54
2023-12-14T15:46:54.177Z,31.73
2023-12-14T15:49:24.135Z,34.58
2023-12-14T15:51:58.719Z,29.64
2023-12-14T15:54:28.789Z,31.73
2023-12-14T15:56:59.767Z,29.26
2023-12-14T15:59:28.482Z,29.45
2023-12-14T16:01:55.570Z,31.92
2023-12-14T16:04:23.915Z,29.07
2023-12-14T16:06:52.842Z,32.49
2023-12-14T16:09:20.750Z,28.69
2023-12-14T16:11:49.243Z,25.65
2023-12-14T16:14:17.900Z,29.07
2023-12-14T16:16:46.121Z,29.45
2023-12-14T16:19:14.670Z,28.12
2023-12-14T16:21:42.941Z,29.26
2023-12-14T16:24:11.475Z,35.34
2023-12-14T16:26:43.023Z,28.88
2023-12-14T16:29:11.270Z,29.45
2023-12-14T16:31:43.718Z,29.64
2023-12-14T16:34:15.155Z,29.64
2023-12-14T16:36:49.575Z,28.69
2023-12-14T16:39:19.474Z,26.79
2023-12-14T16:41:49.472Z,32.11
2023-12-14T16:44:19.683Z,30.40
2023-12-14T16:46:49.716Z,28.69
2023-12-14T16:49:18.167Z,30.97
2023-12-14T16:51:46.496Z,32.11
2023-12-14T16:54:15.222Z,33.25
2023-12-14T16:56:44.176Z,33.44
2023-12-14T16:59:15.386Z,27.55
2023-12-14T17:01:43.467Z,27.93
2023-12-14T17:04:11.551Z,30.97
2023-12-14T17:06:41.875Z,29.64
2023-12-14T17:09:12.480Z,29.45
2023-12-14T17:11:42.693Z,29.64
2023-12-14T17:14:14.154Z,28.88
2023-12-14T17:16:48.145Z,28.69
2023-12-14T17:19:18.064Z,31.54
2023-12-14T17:21:48.045Z,30.21
2023-12-14T17:24:18.216Z,35.15
2023-12-14T17:26:48.070Z,32.49
2023-12-14T17:29:18.030Z,32.11
2023-12-14T17:31:47.946Z,42.75
2023-12-14T17:34:18.041Z,47.31
2023-12-14T17:36:46.345Z,36.67
2023-12-14T17:39:14.846Z,34.20
2023-12-14T17:41:47.526Z,35.53
2023-12-14T17:44:14.685Z,36.29
2023-12-14T17:46:43.730Z,36.48
2023-12-14T17:49:12.444Z,31.54
2023-12-14T17:51:42.380Z,32.11
2023-12-14T17:54:13.254Z,35.72
2023-12-14T17:56:43.306Z,30.59
2023-12-14T17:59:13.226Z,30.59
2023-12-14T18:01:47.514Z,31.92
2023-12-14T18:04:17.364Z,30.02
2023-12-14T18:06:48.600Z,33.06
2023-12-14T18:09:21.602Z,30.02
2023-12-14T18:11:51.426Z,29.64
2023-12-14T18:14:21.258Z,34.58
2023-12-14T18:16:51.159Z,36.29
2023-12-14T18:19:21.190Z,36.10
2023-12-14T18:21:51.095Z,28.12
2023-12-14T18:24:22.135Z,30.97
2023-12-14T18:26:52.144Z,26.60
2023-12-14T18:29:22.110Z,25.08
2023-12-14T18:31:52.159Z,25.46
2023-12-14T18:34:22.194Z,28.12
2023-12-14T18:36:52.199Z,28.88
2023-12-14T18:39:22.005Z,27.74
2023-12-14T18:41:51.803Z,26.41
2023-12-14T18:44:21.748Z,28.69
2023-12-14T18:46:51.654Z,30.21
2023-12-14T18:49:21.706Z,22.99
2023-12-14T18:51:51.604Z,27.55
2023-12-14T18:54:21.968Z,25.08
2023-12-14T18:56:51.844Z,29.83
2023-12-14T18:59:22.593Z,30.21
2023-12-14T19:01:52.984Z,29.64
2023-12-14T19:04:23.031Z,31.73
2023-12-14T19:06:52.990Z,30.78
2023-12-14T19:09:21.492Z,25.08
2023-12-14T19:11:51.845Z,27.74
2023-12-14T19:14:21.177Z,28.88
2023-12-14T19:16:51.043Z,29.83
2023-12-14T19:19:19.287Z,31.35
2023-12-14T19:21:48.080Z,34.20
2023-12-14T19:24:18.698Z,30.78
2023-12-14T19:26:48.903Z,33.44
2023-12-14T19:29:18.845Z,28.88
2023-12-14T19:31:49.100Z,27.93
2023-12-14T19:34:18.962Z,27.55
2023-12-14T19:36:48.981Z,24.32
2023-12-14T19:39:20.105Z,30.02
2023-12-14T19:41:52.106Z,25.27
2023-12-14T19:44:22.557Z,30.59
2023-12-14T19:46:53.796Z,29.26
2023-12-14T19:49:23.931Z,28.88
2023-12-14T19:51:53.933Z,32.30
2023-12-14T19:54:22.405Z,25.65
2023-12-14T19:56:51.321Z,31.54
2023-12-14T19:59:20.473Z,28.12
2023-12-14T20:01:47.723Z,30.59
2023-12-14T20:04:17.765Z,29.64
2023-12-14T20:06:48.079Z,28.50
2023-12-14T20:09:17.959Z,28.69
2023-12-14T20:11:49.301Z,27.74
2023-12-14T20:14:19.147Z,27.55
2023-12-14T20:16:49.872Z,31.73
2023-12-14T20:19:19.857Z,28.69
2023-12-14T20:21:49.816Z,31.54
2023-12-14T20:24:19.743Z,27.36
2023-12-14T20:26:49.585Z,29.83
2023-12-14T20:29:19.441Z,27.55
2023-12-14T20:31:47.922Z,25.46
2023-12-14T20:34:16.433Z,28.69
2023-12-14T20:36:44.980Z,31.54
2023-12-14T20:39:13.154Z,32.87
2023-12-14T20:41:41.550Z,30.78
2023-12-14T20:44:09.966Z,38.00
2023-12-14T20:46:38.377Z,32.11
2023-12-14T20:49:06.800Z,28.88
2023-12-14T20:51:35.209Z,33.44
2023-12-14T20:54:03.743Z,28.31
2023-12-14T20:56:32.848Z,25.46
2023-12-14T20:59:00.584Z,26.60
2023-12-14T21:01:32.508Z,30.97
2023-12-14T21:04:00.845Z,29.83
2023-12-14T21:06:32.722Z,32.68
2023-12-14T21:09:03.204Z,28.12
2023-12-14T21:11:33.464Z,30.21
2023-12-14T21:14:03.321Z,28.88
2023-12-14T21:16:33.151Z,37.81
2023-12-14T21:19:03.662Z,25.46
2023-12-14T21:21:33.611Z,31.92
2023-12-14T21:24:04.614Z,28.69
2023-12-14T21:26:37.476Z,27.55
2023-12-14T21:29:07.563Z,28.12
2023-12-14T21:31:37.682Z,30.02
2023-12-14T21:34:08.906Z,29.64
2023-12-14T21:36:37.418Z,27.36
2023-12-14T21:39:06.061Z,33.06
2023-12-14T21:41:34.231Z,26.41
2023-12-14T21:44:02.716Z,24.51
2023-12-14T21:46:31.094Z,28.69
2023-12-14T21:49:09.746Z,27.93
2023-12-14T21:51:44.359Z,25.27
2023-12-14T21:54:14.293Z,28.31
2023-12-14T21:56:44.603Z,31.35
2023-12-14T21:59:15.228Z,29.64
2023-12-14T22:01:45.183Z,28.50
2023-12-14T22:04:15.116Z,29.64
2023-12-14T22:06:44.954Z,32.11
2023-12-14T22:09:16.805Z,31.35
2023-12-14T22:11:46.729Z,29.45
2023-12-14T22:14:16.607Z,30.40
2023-12-14T22:16:46.779Z,31.54
2023-12-14T22:19:16.654Z,30.78
2023-12-14T22:21:46.782Z,30.40
2023-12-14T22:24:16.702Z,29.64
2023-12-14T22:26:46.568Z,26.98
2023-12-14T22:29:16.403Z,32.30
2023-12-14T22:31:46.296Z,27.93
2023-12-14T22:34:16.094Z,31.92
2023-12-14T22:36:45.953Z,29.07
2023-12-14T22:39:15.946Z,24.70
2023-12-14T22:41:45.761Z,27.17
2023-12-14T22:44:16.026Z,33.82
2023-12-14T22:46:45.952Z,30.02
2023-12-14T22:49:16.080Z,25.65
2023-12-14T22:51:46.294Z,25.46
2023-12-14T22:54:16.075Z,30.02
2023-12-14T22:56:45.812Z,29.45
2023-12-14T22:59:14.438Z,28.31
2023-12-14T23:01:42.953Z,27.55
2023-12-14T23:04:11.219Z,30.59
2023-12-14T23:06:39.608Z,31.35
2023-12-14T23:09:08.061Z,29.83
2023-12-14T23:11:36.668Z,29.83
2023-12-14T23:14:04.964Z,31.35
2023-12-14T23:16:33.412Z,27.55
2023-12-14T23:19:01.848Z,33.82
2023-12-14T23:21:30.112Z,30.40
2023-12-14T23:23:58.624Z,28.88
2023-12-14T23:26:26.953Z,32.49
2023-12-14T23:28:55.526Z,28.69
2023-12-14T23:31:23.697Z,26.41
2023-12-14T23:33:52.366Z,27.93
2023-12-14T23:36:20.487Z,26.60
2023-12-14T23:38:48.965Z,31.73
2023-12-14T23:41:17.371Z,30.02
2023-12-14T23:43:45.851Z,30.02
2023-12-14T23:46:14.615Z,26.79
2023-12-14T23:48:44.945Z,29.07
2023-12-14T23:51:14.038Z,31.73
2023-12-14T23:53:42.538Z,30.78
2023-12-14T23:56:10.843Z,30.40
2023-12-14T23:58:40.671Z,33.44
